Time;durP1;ratioP1;P1;durP2;ratioP2;P2;SDS_P1;SDS_P2;PMS_P1;PMS_P2;Temp;Humidity;BMP_temperature;BMP_pressure;BME280_temperature;BME280_humidity;BME280_pressure;Samples;Min_cycle;Max_cycle;Signal;HPM_P1;HPM_P2
2022/06/25 00:01:08;;;;;;;2.97;2.08;;;;;;;13.90;100.00;96526.00;4997139;28;20046;-66
2022/06/25 00:03:34;;;;;;;8.05;2.10;;;;;;;13.81;100.00;96522.88;5002762;28;20060;-65
2022/06/25 00:05:59;;;;;;;3.70;1.90;;;;;;;13.82;100.00;96518.13;5001825;28;20042;-66
2022/06/25 00:08:24;;;;;;;2.97;1.73;;;;;;;13.85;100.00;96531.91;4994400;28;20038;-66
2022/06/25 00:10:52;;;;;;;2.55;1.92;;;;;;;13.80;100.00;96528.75;5003724;28;20042;-66
2022/06/25 00:13:17;;;;;;;3.10;2.20;;;;;;;13.79;100.00;96533.47;5000377;28;20581;-64
2022/06/25 00:15:43;;;;;;;3.78;1.73;;;;;;;13.83;100.00;96527.94;5020325;28;20075;-65
2022/06/25 00:18:09;;;;;;;3.15;1.38;;;;;;;13.91;100.00;96526.78;5033176;28;20399;-66
2022/06/25 00:20:34;;;;;;;1.60;1.35;;;;;;;13.84;100.00;96532.28;5009492;28;20127;-66
2022/06/25 00:22:59;;;;;;;6.13;2.03;;;;;;;13.77;100.00;96525.63;5003414;28;20044;-64
2022/06/25 00:25:25;;;;;;;2.75;1.50;;;;;;;13.71;100.00;96538.19;4998456;28;20042;-65
2022/06/25 00:27:50;;;;;;;4.55;1.52;;;;;;;13.72;100.00;96528.75;5022136;28;20509;-65
2022/06/25 00:30:15;;;;;;;4.28;1.50;;;;;;;13.77;100.00;96535.81;5018444;28;20037;-65
2022/06/25 00:32:41;;;;;;;5.82;1.65;;;;;;;13.88;100.00;96531.13;5018504;28;20077;-65
2022/06/25 00:35:06;;;;;;;5.10;1.65;;;;;;;13.89;100.00;96529.94;4999251;28;20435;-64
2022/06/25 00:37:32;;;;;;;2.03;1.15;;;;;;;13.90;100.00;96528.78;5001957;28;20049;-65
2022/06/25 00:39:58;;;;;;;4.20;1.73;;;;;;;13.93;100.00;96538.19;5003252;28;20046;-65
2022/06/25 00:42:23;;;;;;;3.15;1.15;;;;;;;13.93;100.00;96530.72;4997711;28;20054;-64
2022/06/25 00:44:49;;;;;;;3.05;1.25;;;;;;;13.93;100.00;96535.44;5003179;28;20128;-65
2022/06/25 00:47:15;;;;;;;4.88;1.00;;;;;;;13.96;100.00;96535.44;4997566;28;20503;-64
2022/06/25 00:49:41;;;;;;;2.08;1.13;;;;;;;13.94;100.00;96539.78;5003350;28;20077;-65
2022/06/25 00:52:11;;;;;;;6.07;1.10;;;;;;;13.91;100.00;96535.06;4996270;28;20518;-64
2022/06/25 00:54:38;;;;;;;;;;;;;;;13.91;100.00;96537.81;5003723;28;20046;-65
2022/06/25 00:57:06;;;;;;;4.15;1.13;;;;;;;13.90;100.00;96536.22;4999116;28;20397;-63
2022/06/25 00:59:37;;;;;;;2.85;0.90;;;;;;;13.91;100.00;96532.31;5002389;28;20435;-65
2022/06/25 01:02:02;;;;;;;2.88;0.90;;;;;;;13.92;100.00;96533.88;5002622;28;20042;-62
2022/06/25 01:04:29;;;;;;;2.90;1.05;;;;;;;13.86;100.00;96536.22;4996843;28;20499;-66
2022/06/25 01:06:55;;;;;;;5.43;1.13;;;;;;;13.81;100.00;96533.88;4997864;28;20145;-66
2022/06/25 01:09:20;;;;;;;3.45;0.80;;;;;;;13.82;100.00;96537.41;4997417;28;20510;-66
2022/06/25 01:11:46;;;;;;;7.35;1.15;;;;;;;13.74;100.00;96531.91;5003582;28;20057;-65
2022/06/25 01:14:12;;;;;;;4.82;1.00;;;;;;;13.73;100.00;96530.31;4995519;28;20049;-65
2022/06/25 01:16:37;;;;;;;2.90;1.05;;;;;;;13.71;100.00;96538.19;5000612;28;20076;-65
2022/06/25 01:19:08;;;;;;;2.60;0.90;;;;;;;13.66;100.00;96538.56;4998124;28;20034;-64
2022/06/25 01:21:35;;;;;;;2.08;0.88;;;;;;;13.63;100.00;96539.34;5001429;28;20042;-65
2022/06/25 01:24:05;;;;;;;4.03;0.93;;;;;;;13.60;100.00;96534.63;4999969;28;20049;-64
2022/06/25 01:26:40;;;;;;;1.25;0.88;;;;;;;13.55;100.00;96549.53;5012818;28;20042;-62
2022/06/25 01:29:06;;;;;;;1.92;0.98;;;;;;;13.53;100.00;96538.13;5013879;28;20142;-63
2022/06/25 01:31:32;;;;;;;2.72;0.90;;;;;;;13.54;100.00;96539.72;4993807;28;20046;-65
2022/06/25 01:33:58;;;;;;;2.00;0.80;;;;;;;13.34;100.00;96533.78;4998102;28;20048;-64
2022/06/25 01:36:24;;;;;;;0.73;0.70;;;;;;;13.37;100.00;96532.22;4993686;28;20058;-65
2022/06/25 01:38:49;;;;;;;2.97;1.00;;;;;;;13.39;100.00;96529.84;4984215;28;20097;-65
2022/06/25 01:41:15;;;;;;;2.42;0.80;;;;;;;13.40;100.00;96536.94;4985699;28;20157;-65
2022/06/25 01:43:40;;;;;;;1.00;0.75;;;;;;;13.37;100.00;96529.47;4994254;28;20053;-66
2022/06/25 01:46:06;;;;;;;1.00;0.88;;;;;;;13.37;100.00;96533.00;4988395;28;20380;-64
2022/06/25 01:48:32;;;;;;;3.13;1.00;;;;;;;13.43;100.00;96535.38;5002328;28;20111;-64
2022/06/25 01:50:57;;;;;;;3.75;0.90;;;;;;;13.41;100.00;96529.47;5002339;28;20506;-67
2022/06/25 01:53:23;;;;;;;3.25;0.80;;;;;;;13.40;100.00;96534.19;4990635;28;20403;-66
2022/06/25 01:55:49;;;;;;;1.63;0.90;;;;;;;13.44;100.00;96537.72;5002086;28;20042;-65
2022/06/25 01:58:15;;;;;;;4.32;1.00;;;;;;;13.39;100.00;96536.13;5004101;28;20133;-66
2022/06/25 02:00:41;;;;;;;5.90;1.27;;;;;;;13.33;100.00;96537.69;5004945;28;20038;-66
2022/06/25 02:03:07;;;;;;;3.78;0.80;;;;;;;13.28;100.00;96542.75;4990431;28;20050;-66
2022/06/25 02:08:18;;;;;;;4.82;0.80;;;;;;;13.22;100.00;96541.56;4987010;28;20048;-64
2022/06/25 02:10:45;;;;;;;3.47;0.90;;;;;;;13.20;100.00;96534.50;5000595;28;20486;-66
2022/06/25 02:13:10;;;;;;;6.47;1.27;;;;;;;13.16;100.00;96539.19;4996262;28;20057;-66
2022/06/25 02:15:36;;;;;;;1.75;0.77;;;;;;;13.17;100.00;96539.97;5001755;28;20041;-65
2022/06/25 02:18:01;;;;;;;1.45;0.60;;;;;;;13.11;100.00;96534.06;5002361;28;20536;-63
2022/06/25 02:20:27;;;;;;;4.00;0.65;;;;;;;13.11;100.00;96539.56;4996906;28;20135;-65
2022/06/25 02:22:52;;;;;;;4.85;0.90;;;;;;;13.11;100.00;96536.03;5001148;28;20515;-65
2022/06/25 02:25:18;;;;;;;0.60;0.60;;;;;;;13.07;100.00;96546.22;4989293;28;20411;-65
2022/06/25 02:27:45;;;;;;;1.05;0.73;;;;;;;12.98;100.00;96555.63;5003068;28;20491;-65
2022/06/25 02:30:10;;;;;;;1.85;0.93;;;;;;;12.97;100.00;96548.53;4997072;28;20644;-65
2022/06/25 02:32:36;;;;;;;2.33;0.80;;;;;;;12.89;100.00;96546.13;5001613;28;20128;-66
2022/06/25 02:35:02;;;;;;;1.20;0.75;;;;;;;12.88;100.00;96545.34;5002065;28;20042;-65
2022/06/25 02:37:28;;;;;;;6.15;0.90;;;;;;;12.88;100.00;96548.09;4988974;28;20058;-64
2022/06/25 02:39:53;;;;;;;2.92;0.75;;;;;;;12.91;100.00;96552.84;5001701;28;20045;-65
2022/06/25 02:42:19;;;;;;;2.45;0.75;;;;;;;12.90;100.00;96556.75;4987332;28;20042;-65
2022/06/25 02:44:44;;;;;;;6.97;0.80;;;;;;;12.89;100.00;96554.38;5002150;28;20034;-66
2022/06/25 02:47:10;;;;;;;3.45;0.80;;;;;;;12.90;100.00;96553.22;4995321;28;20041;-66
2022/06/25 02:49:35;;;;;;;1.92;0.80;;;;;;;12.92;100.00;96550.88;4992796;28;20518;-66
2022/06/25 02:52:00;;;;;;;4.68;0.90;;;;;;;12.91;100.00;96546.53;4999062;28;20037;-66
2022/06/25 02:54:26;;;;;;;3.28;0.80;;;;;;;12.88;100.00;96553.59;4986052;28;20051;-65
2022/06/25 02:59:42;;;;;;;3.83;0.82;;;;;;;12.70;100.00;96556.25;4987157;28;20104;-65
2022/06/25 03:02:07;;;;;;;2.50;0.77;;;;;;;12.49;100.00;96553.38;4996328;28;20034;-65
2022/06/25 03:04:34;;;;;;;3.40;0.80;;;;;;;12.38;100.00;96548.59;5001708;28;20132;-65
2022/06/25 03:07:00;;;;;;;8.32;1.70;;;;;;;12.17;100.00;96554.75;4991779;28;20111;-64
2022/06/25 03:09:25;;;;;;;1.05;0.73;;;;;;;11.99;100.00;96551.03;4996844;28;20042;-64
2022/06/25 03:11:51;;;;;;;6.28;0.85;;;;;;;11.89;100.00;96549.75;5018065;28;20037;-65
2022/06/25 03:14:17;;;;;;;4.43;1.02;;;;;;;12.12;100.00;96551.53;4991884;28;20085;-66
2022/06/25 03:16:44;;;;;;;2.42;1.40;;;;;;;12.34;100.00;96550.53;4995015;28;20120;-66
2022/06/25 03:19:09;;;;;;;1.88;0.80;;;;;;;12.47;100.00;96550.22;4992612;28;20129;-66
2022/06/25 03:21:35;;;;;;;3.22;0.85;;;;;;;12.38;100.00;96548.59;5000812;28;20137;-64
2022/06/25 03:24:02;;;;;;;4.65;0.90;;;;;;;12.46;100.00;96557.69;5000964;28;20042;-66
2022/06/25 03:26:27;;;;;;;0.95;0.70;;;;;;;12.60;100.00;96562.47;5002838;28;20099;-62
2022/06/25 03:28:53;;;;;;;3.00;0.90;;;;;;;12.55;100.00;96560.06;4993122;28;20057;-64
2022/06/25 03:31:20;;;;;;;1.40;0.90;;;;;;;12.46;100.00;96563.19;4989778;28;20041;-64
2022/06/25 03:33:47;;;;;;;0.98;0.77;;;;;;;12.45;100.00;96567.09;5004579;28;20049;-64
2022/06/25 03:36:12;;;;;;;0.90;0.77;;;;;;;12.19;100.00;96557.88;4996017;28;20042;-65
2022/06/25 03:38:38;;;;;;;3.88;1.05;;;;;;;12.29;100.00;96555.59;5005098;28;20038;-65
2022/06/25 03:43:47;;;;;;;1.73;0.75;;;;;;;12.07;100.00;96555.44;5002358;28;20403;-65
2022/06/25 03:46:12;;;;;;;1.55;0.73;;;;;;;12.17;100.00;96560.22;4990013;28;20128;-64
2022/06/25 03:48:38;;;;;;;1.67;0.90;;;;;;;12.27;100.00;96566.97;5004376;28;20101;-65
2022/06/25 03:51:04;;;;;;;0.93;0.70;;;;;;;12.40;100.00;96567.44;4997488;28;20042;-66
2022/06/25 03:53:29;;;;;;;1.60;1.13;;;;;;;12.59;100.00;96566.41;4994857;28;20038;-64
2022/06/25 03:55:54;;;;;;;4.72;1.23;;;;;;;12.82;100.00;96558.69;5004325;28;20046;-63
2022/06/25 03:58:20;;;;;;;2.30;1.00;;;;;;;12.96;100.00;96557.16;4997035;28;20103;-64
2022/06/25 04:00:45;;;;;;;1.00;0.70;;;;;;;13.08;100.00;96567.06;4998073;28;20095;-62
2022/06/25 04:03:11;;;;;;;4.22;0.70;;;;;;;13.19;100.00;96565.13;4996078;28;20348;-64
2022/06/25 04:05:36;;;;;;;5.43;0.90;;;;;;;13.31;100.00;96570.31;4996088;28;20038;-64
2022/06/25 04:08:02;;;;;;;2.10;0.77;;;;;;;13.39;100.00;96569.16;5002747;28;20044;-66
2022/06/25 04:10:27;;;;;;;2.63;0.70;;;;;;;13.54;100.00;96574.69;5000717;28;21559;-65
2022/06/25 04:12:54;;;;;;;0.90;0.70;;;;;;;13.76;100.00;96581.81;4990000;28;20042;-65
2022/06/25 04:15:20;;;;;;;1.17;0.80;;;;;;;13.90;100.00;96581.06;4996900;28;20373;-66
2022/06/25 04:17:46;;;;;;;3.17;1.02;;;;;;;13.94;100.00;96576.34;5003605;28;20490;-64
2022/06/25 04:20:11;;;;;;;1.98;0.85;;;;;;;14.16;100.00;96568.09;5001306;28;20056;-66
2022/06/25 04:22:37;;;;;;;3.05;0.90;;;;;;;14.21;100.00;96573.22;5002873;28;20042;-65
2022/06/25 04:25:03;;;;;;;1.80;0.93;;;;;;;14.41;100.00;96584.63;4993831;28;20057;-66
2022/06/25 04:30:12;;;;;;;1.90;0.80;;;;;;;14.43;100.00;96585.03;4984712;28;20051;-64
2022/06/25 04:32:37;;;;;;;4.13;0.60;;;;;;;14.95;100.00;96586.56;4998949;28;20137;-65
2022/06/25 04:35:04;;;;;;;1.83;0.68;;;;;;;15.41;100.00;96583.63;4990772;28;20038;-66
2022/06/25 04:37:29;;;;;;;2.88;0.60;;;;;;;16.13;100.00;96579.66;4977134;28;20030;-65
2022/06/25 04:39:54;;;;;;;4.15;0.57;;;;;;;16.78;100.00;96579.88;5002004;28;20042;-65
2022/06/25 04:42:20;;;;;;;2.15;0.70;;;;;;;17.50;100.00;96587.41;4996119;28;20128;-65
2022/06/25 04:44:45;;;;;;;1.77;0.65;;;;;;;18.39;100.00;96582.59;4993748;28;20138;-64
2022/06/25 04:47:10;;;;;;;0.90;0.70;;;;;;;18.93;100.00;96583.69;5003012;28;20042;-64
2022/06/25 04:49:36;;;;;;;2.08;0.60;;;;;;;19.33;99.23;96586.47;5004046;28;20084;-64
2022/06/25 04:52:02;;;;;;;1.00;0.60;;;;;;;20.42;91.87;96590.03;5002894;28;20124;-64
2022/06/25 04:54:27;;;;;;;0.70;0.50;;;;;;;21.85;83.54;96593.00;4998565;28;20100;-64
2022/06/25 04:56:52;;;;;;;1.95;0.50;;;;;;;23.17;75.25;96591.97;5000308;28;20034;-66
2022/06/25 04:59:18;;;;;;;4.70;0.50;;;;;;;24.40;67.42;96592.53;4985072;28;20046;-67
2022/06/25 05:01:44;;;;;;;11.35;0.52;;;;;;;24.69;63.25;96591.41;5000304;28;20037;-66
2022/06/25 05:04:10;;;;;;;1.98;0.52;;;;;;;26.05;60.49;96589.47;4988238;28;20070;-64
2022/06/25 05:06:35;;;;;;;0.65;0.43;;;;;;;26.69;55.86;96594.81;4999344;28;20084;-64
2022/06/25 05:09:01;;;;;;;4.63;0.20;;;;;;;27.09;55.13;96592.84;5003642;28;20042;-64
2022/06/25 05:11:27;;;;;;;2.83;0.45;;;;;;;27.53;51.23;96594.22;4998406;28;20046;-65
2022/06/25 05:13:52;;;;;;;2.55;0.50;;;;;;;25.38;57.96;96600.50;4986275;28;20051;-66
2022/06/25 05:16:17;;;;;;;4.88;0.90;;;;;;;27.10;54.14;96605.66;4996025;28;20089;-67
2022/06/25 05:18:43;;;;;;;3.88;0.50;;;;;;;27.93;50.24;96604.94;5018649;28;20042;-67
2022/06/25 05:21:09;;;;;;;3.15;0.38;;;;;;;29.24;47.17;96604.81;5000574;28;20042;-67
2022/06/25 05:23:34;;;;;;;2.15;0.57;;;;;;;30.11;43.67;96607.53;5001114;28;20558;-65
2022/06/25 05:25:59;;;;;;;1.48;0.38;;;;;;;30.80;41.80;96617.28;5005631;28;20049;-66
2022/06/25 05:28:25;;;;;;;2.00;0.30;;;;;;;31.41;40.72;96618.88;5015673;28;20042;-66
2022/06/25 05:30:50;;;;;;;5.15;0.43;;;;;;;30.25;42.27;96614.31;4993057;28;20123;-63
2022/06/25 05:33:16;;;;;;;1.73;0.32;;;;;;;28.41;46.78;96615.16;4990625;28;20050;-64
2022/06/25 05:35:41;;;;;;;1.45;0.40;;;;;;;25.76;58.93;96613.97;4995384;28;20093;-65
2022/06/25 05:38:07;;;;;;;0.80;0.40;;;;;;;27.36;53.16;96613.59;4995582;28;20044;-65
2022/06/25 05:40:33;;;;;;;3.08;0.70;;;;;;;25.36;61.27;96605.78;5001833;28;20038;-65
2022/06/25 05:42:58;;;;;;;2.05;0.40;;;;;;;26.55;55.51;96606.72;5000929;28;20052;-64
2022/06/25 05:45:24;;;;;;;1.95;0.50;;;;;;;25.50;58.64;96602.34;4995213;28;20137;-65
2022/06/25 05:47:49;;;;;;;1.25;0.32;;;;;;;25.96;59.11;96597.94;5016961;28;20053;-66
2022/06/25 05:50:14;;;;;;;1.75;0.40;;;;;;;28.29;51.19;96605.00;5000424;28;20103;-66
2022/06/25 05:52:40;;;;;;;2.95;0.40;;;;;;;26.51;55.70;96604.09;5001346;28;20045;-66
2022/06/25 05:55:06;;;;;;;2.83;0.38;;;;;;;27.94;53.03;96602.91;4991714;28;20518;-66
2022/06/25 05:57:32;;;;;;;4.30;0.40;;;;;;;30.00;46.72;96612.28;4989838;28;20038;-66
2022/06/25 05:59:57;;;;;;;2.15;0.30;;;;;;;30.98;43.30;96610.47;5002769;28;20040;-65
2022/06/25 06:02:26;;;;;;;4.45;0.32;;;;;;;31.43;41.68;96613.47;4996894;28;21263;-66
2022/06/25 06:04:54;;;;;;;5.75;0.40;;;;;;;30.28;43.38;96616.13;5002686;28;20049;-66
2022/06/25 06:07:20;;;;;;;3.55;0.32;;;;;;;25.68;56.31;96609.97;4995425;28;20042;-66
2022/06/25 06:09:45;;;;;;;0.60;0.30;;;;;;;26.02;60.43;96610.84;4997159;28;20048;-66
2022/06/25 06:12:11;;;;;;;1.65;0.38;;;;;;;28.42;51.55;96608.28;4996647;28;20048;-66
2022/06/25 06:14:36;;;;;;;2.05;0.50;;;;;;;29.83;47.15;96617.78;5001837;28;20049;-66
2022/06/25 06:17:02;;;;;;;3.83;0.30;;;;;;;30.73;43.67;96623.41;4991715;28;20443;-67
2022/06/25 06:19:27;;;;;;;0.60;0.10;;;;;;;32.01;41.62;96627.25;4996898;28;20042;-66
2022/06/25 06:21:53;;;;;;;2.92;0.30;;;;;;;32.59;39.25;96632.44;5001867;28;20048;-66
2022/06/25 06:24:18;;;;;;;4.75;0.40;;;;;;;31.65;40.93;96621.28;4996655;28;20140;-66
2022/06/25 06:26:43;;;;;;;4.45;0.60;;;;;;;29.28;47.15;96617.44;5010396;28;20038;-66
2022/06/25 06:29:09;;;;;;;1.95;0.30;;;;;;;28.72;52.85;96630.75;5009132;28;20569;-66
2022/06/25 06:31:34;;;;;;;2.45;0.70;;;;;;;28.77;50.37;96625.22;4992011;28;20423;-67
2022/06/25 06:34:00;;;;;;;2.63;0.57;;;;;;;29.06;47.00;96629.16;5000372;28;20076;-67
2022/06/25 06:36:25;;;;;;;3.55;0.40;;;;;;;27.91;49.94;96627.16;4985265;28;20042;-65
2022/06/25 06:38:51;;;;;;;2.15;0.35;;;;;;;26.90;53.35;96623.09;4989849;28;20041;-66
2022/06/25 06:41:19;;;;;;;2.25;0.52;;;;;;;26.35;54.55;96620.56;4994348;28;20106;-66
2022/06/25 06:43:45;;;;;;;1.48;0.40;;;;;;;26.88;53.39;96617.97;4994875;28;20128;-66
2022/06/25 06:46:13;;;;;;;0.63;0.30;;;;;;;27.37;51.77;96617.94;4993672;28;20128;-64
2022/06/25 06:48:39;;;;;;;0.70;0.38;;;;;;;26.61;52.87;96616.06;5001913;28;20049;-65
2022/06/25 06:51:04;;;;;;;2.45;0.50;;;;;;;25.51;56.14;96617.91;4996163;28;20060;-65
2022/06/25 06:53:30;;;;;;;1.10;0.30;;;;;;;27.79;50.14;96626.16;4997892;28;20570;-66
2022/06/25 06:55:55;;;;;;;2.97;0.40;;;;;;;27.48;50.56;96620.19;4999778;28;20470;-65
2022/06/25 06:58:21;;;;;;;2.30;0.30;;;;;;;28.40;51.33;96608.00;4994401;28;20041;-65
2022/06/25 07:00:46;;;;;;;1.80;0.50;;;;;;;26.08;55.77;96608.94;5001593;28;20046;-66
2022/06/25 07:03:11;;;;;;;3.92;0.47;;;;;;;24.94;57.70;96614.78;4986822;28;20058;-65
2022/06/25 07:05:37;;;;;;;1.95;0.80;;;;;;;25.51;59.89;96608.72;5000749;28;20076;-66
2022/06/25 07:08:02;;;;;;;3.70;0.50;;;;;;;24.79;66.46;96603.38;4996081;28;20071;-67
2022/06/25 07:10:28;;;;;;;2.22;0.70;;;;;;;26.56;54.75;96599.88;4998455;28;20050;-67
2022/06/25 07:12:53;;;;;;;2.55;0.40;;;;;;;26.89;55.48;96596.25;5000973;28;20049;-66
2022/06/25 07:15:19;;;;;;;0.90;0.30;;;;;;;26.77;55.07;96591.66;4993636;28;20558;-67
2022/06/25 07:17:44;;;;;;;1.08;0.47;;;;;;;27.01;55.33;96600.06;4992365;28;20052;-67
2022/06/25 07:20:10;;;;;;;2.90;0.73;;;;;;;26.85;53.74;96598.47;4996694;28;20510;-67
2022/06/25 07:22:35;;;;;;;3.45;0.70;;;;;;;25.28;56.96;96596.94;5006163;28;20125;-67
2022/06/25 07:25:01;;;;;;;3.83;0.80;;;;;;;26.10;55.09;96594.44;5006676;28;20046;-66
2022/06/25 07:27:27;;;;;;;1.17;0.40;;;;;;;24.39;61.81;96588.16;5015071;28;20141;-66
2022/06/25 07:29:52;;;;;;;2.40;0.40;;;;;;;24.86;63.48;96583.47;5012868;28;20100;-66
2022/06/25 07:32:17;;;;;;;3.42;1.77;;;;;;;28.14;51.21;96583.25;4987583;28;20573;-67
2022/06/25 07:34:43;;;;;;;2.55;0.70;;;;;;;24.80;57.96;96586.13;5000707;28;20372;-71
2022/06/25 07:37:08;;;;;;;4.28;0.60;;;;;;;23.04;67.82;96589.19;4994073;28;20074;-66
2022/06/25 07:39:34;;;;;;;2.80;0.68;;;;;;;24.90;61.88;96572.91;4999367;28;20105;-68
2022/06/25 07:41:59;;;;;;;1.88;0.60;;;;;;;28.08;51.35;96582.41;5001024;28;20045;-66
2022/06/25 07:44:25;;;;;;;2.55;0.63;;;;;;;27.26;50.88;96576.28;4992541;28;20069;-66
2022/06/25 07:46:50;;;;;;;1.08;0.30;;;;;;;27.86;49.59;96585.59;4993394;28;20133;-65
2022/06/25 07:49:16;;;;;;;0.73;0.40;;;;;;;29.91;45.61;96576.56;4979291;28;20046;-65
2022/06/25 07:51:56;;;;;;;4.47;0.40;;;;;;;28.37;48.63;96575.94;5001366;28;20132;-66
2022/06/25 07:54:27;;;;;;;3.60;0.40;;;;;;;30.99;42.62;96576.03;4993890;28;20059;-67
2022/06/25 07:56:53;;;;;;;3.72;0.55;;;;;;;31.34;40.85;96574.09;5000746;28;20045;-66
2022/06/25 07:59:19;;;;;;;2.30;0.40;;;;;;;31.05;41.49;96578.88;4989649;28;20053;-66
2022/06/25 08:01:45;;;;;;;0.75;0.35;;;;;;;30.73;42.12;96578.16;4990771;28;20096;-67
2022/06/25 08:04:10;;;;;;;1.75;0.30;;;;;;;29.03;46.92;96570.16;4987538;28;20133;-67
2022/06/25 08:06:38;;;;;;;2.83;0.40;;;;;;;28.27;46.30;96573.72;4999987;28;20053;-67
2022/06/25 08:09:04;;;;;;;4.53;0.45;;;;;;;26.65;51.47;96565.34;4996495;28;20128;-67
2022/06/25 08:11:30;;;;;;;1.33;0.60;;;;;;;27.27;50.13;96567.41;4998381;28;20123;-66
2022/06/25 08:13:56;;;;;;;1.65;0.20;;;;;;;27.02;52.16;96563.06;5000988;28;20061;-67
2022/06/25 08:16:23;;;;;;;1.05;0.50;;;;;;;28.43;48.46;96559.13;4999003;28;20064;-65
2022/06/25 08:18:49;;;;;;;2.05;0.40;;;;;;;26.13;56.72;96555.00;5004342;28;20065;-65
2022/06/25 08:21:14;;;;;;;0.80;0.50;;;;;;;27.29;52.79;96547.25;4996215;28;20478;-66
2022/06/25 08:23:40;;;;;;;0.55;0.30;;;;;;;24.00;61.15;96553.34;4999901;28;20415;-66
2022/06/25 08:26:05;;;;;;;4.53;0.50;;;;;;;24.52;63.58;96551.66;5000674;28;20044;-68
2022/06/25 08:28:31;;;;;;;1.33;0.30;;;;;;;24.42;62.21;96548.06;5020645;28;20049;-66
2022/06/25 08:30:56;;;;;;;2.30;0.50;;;;;;;22.91;66.78;96547.34;5005381;28;20065;-67
2022/06/25 08:33:22;;;;;;;3.13;0.60;;;;;;;22.19;68.28;96540.59;4997883;28;21439;-66
2022/06/25 08:35:47;;;;;;;1.92;0.70;;;;;;;22.18;68.03;96541.81;5002794;28;20065;-68
2022/06/25 08:38:12;;;;;;;1.08;0.50;;;;;;;22.87;64.87;96543.91;4995383;28;20096;-68
2022/06/25 08:40:38;;;;;;;2.13;0.47;;;;;;;23.65;60.10;96533.91;5003541;28;20053;-68
2022/06/25 08:43:04;;;;;;;3.65;0.60;;;;;;;24.26;58.39;96534.34;4999985;28;20066;-68
2022/06/25 08:45:30;;;;;;;1.50;0.47;;;;;;;25.13;57.25;96532.28;4992830;28;20077;-66
2022/06/25 08:47:59;;;;;;;0.75;0.50;;;;;;;25.38;56.75;96528.38;5002713;28;20746;-67
2022/06/25 08:50:24;;;;;;;3.07;0.80;;;;;;;25.21;61.50;96535.56;4999566;28;20045;-63
2022/06/25 08:52:54;;;;;;;3.85;0.60;;;;;;;24.04;65.27;96526.81;5000618;28;20289;-66
2022/06/25 08:55:36;;;;;;;2.03;0.85;;;;;;;24.87;61.01;96525.44;4981916;28;20084;-67
2022/06/25 08:58:03;;;;;;;1.50;0.73;;;;;;;25.19;60.18;96518.41;4984550;28;20038;-64
2022/06/25 09:00:30;;;;;;;3.50;0.55;;;;;;;26.04;57.31;96512.19;4987741;28;20145;-64
2022/06/25 09:02:55;;;;;;;1.27;0.43;;;;;;;26.27;56.01;96513.44;5009161;28;20045;-65
2022/06/25 09:05:25;;;;;;;2.72;0.52;;;;;;;24.97;57.12;96508.19;5028325;28;20054;-65
2022/06/25 09:07:59;;;;;;;2.08;0.60;;;;;;;25.50;56.13;96500.66;5003104;28;20077;-65
2022/06/25 09:10:26;;;;;;;1.17;0.40;;;;;;;26.59;52.65;96502.63;4997954;28;20049;-65
2022/06/25 09:12:54;;;;;;;1.48;0.80;;;;;;;25.08;55.88;96501.31;5001999;28;20405;-65
2022/06/25 09:15:21;;;;;;;1.30;0.45;;;;;;;24.42;55.22;96496.91;4986971;28;20073;-64
2022/06/25 09:17:51;;;;;;;1.92;0.50;;;;;;;23.69;59.21;96498.19;5002547;28;20069;-65
2022/06/25 09:20:18;;;;;;;3.35;1.40;;;;;;;22.90;62.44;96499.13;4997289;28;20128;-64
2022/06/25 09:23:13;;;;;;;2.25;0.50;;;;;;;23.42;58.74;96496.81;5002049;28;20052;-65
2022/06/25 09:25:41;;;;;;;0.60;0.40;;;;;;;24.55;57.41;96489.16;4965110;28;20557;-64
2022/06/25 09:28:06;;;;;;;0.80;0.50;;;;;;;23.88;56.65;96489.91;5021729;28;20029;-64
2022/06/25 09:30:32;;;;;;;2.25;0.47;;;;;;;24.24;54.62;96492.06;5019630;28;20043;-66
2022/06/25 09:33:02;;;;;;;1.27;0.50;;;;;;;25.31;51.37;96488.69;5021436;28;20061;-64
2022/06/25 09:35:29;;;;;;;2.47;0.57;;;;;;;24.64;52.68;96485.59;5003251;28;20390;-65
2022/06/25 09:38:05;;;;;;;0.60;0.40;;;;;;;24.48;52.06;96489.44;5004155;28;20520;-65
2022/06/25 09:40:32;;;;;;;3.00;0.40;;;;;;;24.49;52.51;96484.63;5002325;28;20050;-65
2022/06/25 09:42:58;;;;;;;2.97;0.70;;;;;;;25.66;51.03;96489.06;5002936;28;20037;-65
2022/06/25 09:45:24;;;;;;;0.40;0.30;;;;;;;25.80;50.08;96486.81;4998434;28;20471;-62
2022/06/25 09:47:49;;;;;;;0.75;0.40;;;;;;;25.06;53.55;96475.78;5002396;28;20610;-65
2022/06/25 09:50:19;;;;;;;0.88;0.30;;;;;;;26.17;51.81;96475.47;4987956;28;20687;-65
2022/06/25 09:52:56;;;;;;;1.83;0.50;;;;;;;25.91;50.49;96478.66;5013791;28;20072;-64
2022/06/25 09:55:24;;;;;;;2.08;0.35;;;;;;;25.84;50.76;96476.19;4997918;28;20050;-65
2022/06/25 09:57:53;;;;;;;0.88;0.50;;;;;;;26.40;51.21;96477.50;4993500;28;20072;-65
2022/06/25 10:00:20;;;;;;;1.77;0.40;;;;;;;26.19;50.96;96487.00;4996955;28;20556;-65
2022/06/25 10:02:47;;;;;;;1.75;0.57;;;;;;;25.35;52.04;96472.47;4999485;28;20506;-65
2022/06/25 10:05:15;;;;;;;0.75;0.38;;;;;;;25.89;50.21;96472.75;4996700;28;20466;-64
2022/06/25 10:08:01;;;;;;;2.30;0.40;;;;;;;25.33;45.43;96477.78;5002174;28;20045;-64
2022/06/25 10:10:31;;;;;;;0.93;0.40;;;;;;;24.65;48.00;96477.97;4996097;28;20446;-65
2022/06/25 10:12:57;;;;;;;0.50;0.32;;;;;;;23.94;46.54;96474.09;5001765;28;20450;-66
2022/06/25 10:15:23;;;;;;;0.82;0.30;;;;;;;23.56;49.26;96475.94;4996289;28;20061;-65
2022/06/25 10:17:51;;;;;;;2.03;0.60;;;;;;;23.81;49.16;96466.59;4999639;28;20403;-66
2022/06/25 10:20:18;;;;;;;2.50;1.30;;;;;;;24.34;48.21;96460.03;4996722;28;20042;-65
2022/06/25 10:22:46;;;;;;;2.38;1.13;;;;;;;25.70;45.85;96458.06;5002723;28;20045;-65
2022/06/25 10:25:14;;;;;;;0.70;0.30;;;;;;;26.30;44.61;96453.53;4991496;28;20407;-65
2022/06/25 10:27:48;;;;;;;1.05;0.50;;;;;;;25.91;45.92;96450.59;5002076;28;20721;-66
2022/06/25 10:30:28;;;;;;;0.85;0.47;;;;;;;26.55;45.43;96449.47;4994189;28;20042;-66
2022/06/25 10:32:55;;;;;;;0.47;0.25;;;;;;;26.79;44.49;96443.06;5001573;28;20141;-66
2022/06/25 10:35:32;;;;;;;0.85;0.35;;;;;;;27.30;44.17;96441.97;4996709;28;20065;-65
2022/06/25 10:38:09;;;;;;;1.48;0.35;;;;;;;25.38;47.50;96438.69;5001519;28;20081;-65
2022/06/25 10:40:51;;;;;;;0.65;0.35;;;;;;;24.07;50.40;96432.00;5000122;28;20050;-65
2022/06/25 10:43:34;;;;;;;1.23;0.50;;;;;;;24.25;48.24;96434.84;4997406;28;20042;-65
2022/06/25 10:46:19;;;;;;;0.85;0.40;;;;;;;23.64;50.91;96426.09;5001494;28;20045;-65
2022/06/25 10:49:08;;;;;;;0.65;0.30;;;;;;;25.00;47.95;96419.59;4994200;28;20045;-65
2022/06/25 10:51:36;;;;;;;0.75;0.35;;;;;;;25.92;46.70;96410.09;4995689;28;20042;-65
2022/06/25 10:54:03;;;;;;;1.75;0.32;;;;;;;25.99;45.66;96417.41;5002485;28;20386;-65
2022/06/25 10:56:44;;;;;;;1.77;0.40;;;;;;;25.03;47.50;96403.88;4999042;28;20068;-65
2022/06/25 10:59:14;;;;;;;1.33;0.50;;;;;;;25.41;46.37;96402.53;4994683;28;20718;-65
2022/06/25 11:01:39;;;;;;;;;;;;;;;24.66;48.08;96404.72;5003542;28;20084;-64
2022/06/25 11:04:07;;;;;;;4.87;0.50;;;;;;;25.31;47.51;96399.75;4998029;28;20347;-64
2022/06/25 11:06:34;;;;;;;0.65;0.43;;;;;;;25.30;45.68;96397.44;4994383;28;20281;-64
2022/06/25 11:09:06;;;;;;;1.67;0.50;;;;;;;24.59;47.85;96396.63;4987164;28;20462;-65
2022/06/25 11:11:33;;;;;;;0.93;0.30;;;;;;;24.92;46.56;96398.75;4999998;28;20065;-65
2022/06/25 11:14:00;;;;;;;2.60;0.50;;;;;;;24.95;46.80;96398.59;5001518;28;20446;-65
2022/06/25 11:16:26;;;;;;;2.58;0.35;;;;;;;24.41;48.24;96394.59;4987439;28;20042;-64
2022/06/25 11:18:53;;;;;;;1.15;0.32;;;;;;;24.70;46.09;96393.34;5010761;28;20042;-63
2022/06/25 11:21:34;;;;;;;1.83;0.35;;;;;;;24.74;48.11;96393.97;4995177;28;20053;-65
2022/06/25 11:24:16;;;;;;;2.90;0.40;;;;;;;24.37;48.56;96385.56;5002025;28;20049;-65
2022/06/25 11:29:34;;;;;;;0.75;0.30;;;;;;;24.88;46.98;96379.31;5009431;28;20058;-65
2022/06/25 11:32:00;;;;;;;;;;;;;;;24.99;46.71;96376.00;4997991;28;20049;-65
2022/06/25 11:34:28;;;;;;;2.13;0.80;;;;;;;25.55;45.50;96380.22;4997935;28;19967;-66
2022/06/25 11:37:17;;;;;;;1.25;0.50;;;;;;;25.98;43.50;96382.19;4992258;28;20080;-64
2022/06/25 11:39:44;;;;;;;2.47;1.70;;;;;;;26.31;42.16;96382.88;4992666;28;20049;-64
2022/06/25 11:42:11;;;;;;;1.80;0.75;;;;;;;26.48;41.85;96377.59;4995899;28;20431;-65
2022/06/25 11:44:38;;;;;;;0.80;0.45;;;;;;;26.08;42.22;96373.22;5001086;28;20049;-65